Time;durP1;ratioP1;P1;durP2;ratioP2;P2;SDS_P1;SDS_P2;PMS_P1;PMS_P2;Temp;Humidity;BMP_temperature;BMP_pressure;BME280_temperature;BME280_humidity;BME280_pressure;Samples;Min_cycle;Max_cycle;Signal;HPM_P1;HPM_P2
2022/11/02 00:01:11;;;;;;;6.30;3.27;;;13.30;99.90;;;;;;4990245;28;20476;-67
2022/11/02 00:03:37;;;;;;;7.93;3.07;;;13.30;99.90;;;;;;4975609;28;20469;-66
2022/11/02 00:06:02;;;;;;;5.97;3.27;;;13.30;99.90;;;;;;4993173;28;20460;-66
2022/11/02 00:08:28;;;;;;;6.67;3.10;;;13.20;99.90;;;;;;4972449;28;20186;-67
2022/11/02 00:10:53;;;;;;;6.80;3.23;;;13.20;99.90;;;;;;4986669;28;20252;-67
2022/11/02 00:13:19;;;;;;;8.30;2.97;;;13.20;99.90;;;;;;4982152;28;20187;-67
2022/11/02 00:15:46;;;;;;;6.53;3.30;;;13.20;99.90;;;;;;4991003;28;20193;-67
2022/11/02 00:18:13;;;;;;;9.83;3.70;;;13.20;99.90;;;;;;4960989;28;20221;-67
2022/11/02 00:20:41;;;;;;;7.67;3.40;;;13.10;99.90;;;;;;4999840;28;20716;-67
2022/11/02 00:23:09;;;;;;;5.37;3.00;;;13.20;99.90;;;;;;4978690;28;20437;-67
2022/11/02 00:25:39;;;;;;;9.23;3.40;;;13.10;99.90;;;;;;4981034;28;20500;-66
2022/11/02 00:28:04;;;;;;;6.60;2.90;;;13.20;99.90;;;;;;4977855;28;20930;-66
2022/11/02 00:30:30;;;;;;;8.93;3.07;;;13.20;99.90;;;;;;4981752;28;20457;-67
2022/11/02 00:32:56;;;;;;;5.07;2.80;;;13.20;99.90;;;;;;4987354;28;20187;-67
2022/11/02 00:35:22;;;;;;;9.07;3.30;;;13.20;99.90;;;;;;4970736;28;20228;-68
2022/11/02 00:37:47;;;;;;;8.07;3.10;;;13.20;99.90;;;;;;4970321;28;20465;-68
2022/11/02 00:40:13;;;;;;;5.40;2.97;;;13.20;99.90;;;;;;4978365;28;20245;-68
2022/11/02 00:42:38;;;;;;;4.90;3.00;;;13.20;99.90;;;;;;5001789;28;20284;-67
2022/11/02 00:45:05;;;;;;;4.50;2.50;;;13.30;99.90;;;;;;4985350;28;20179;-67
2022/11/02 00:47:30;;;;;;;5.00;2.43;;;13.30;99.90;;;;;;4980073;28;20190;-68
2022/11/02 00:49:56;;;;;;;6.30;2.53;;;13.30;99.90;;;;;;4982523;28;20469;-67
2022/11/02 00:52:22;;;;;;;7.57;2.83;;;13.20;99.90;;;;;;4960417;28;20209;-67
2022/11/02 00:54:47;;;;;;;6.30;2.33;;;13.20;99.90;;;;;;4984373;28;20194;-67
2022/11/02 00:57:13;;;;;;;8.23;4.23;;;13.30;99.90;;;;;;4971669;28;20291;-68
2022/11/02 00:59:38;;;;;;;5.40;2.80;;;13.30;99.90;;;;;;4962414;28;20186;-67
2022/11/02 01:02:04;;;;;;;5.87;2.20;;;13.30;99.90;;;;;;4958883;28;20190;-67
2022/11/02 01:04:29;;;;;;;8.10;2.77;;;13.40;99.90;;;;;;4984952;28;20179;-67
2022/11/02 01:06:55;;;;;;;5.60;2.50;;;13.50;99.90;;;;;;4986505;28;20191;-66
2022/11/02 01:09:20;;;;;;;14.53;2.93;;;13.40;99.90;;;;;;4980339;28;20221;-66
2022/11/02 01:11:46;;;;;;;3.83;2.10;;;13.30;99.90;;;;;;4983047;28;20191;-67
2022/11/02 01:14:11;;;;;;;6.40;2.50;;;13.30;99.90;;;;;;4980985;28;20183;-66
2022/11/02 01:16:40;;;;;;;8.80;2.53;;;13.40;99.90;;;;;;4971433;28;21197;-67
2022/11/02 01:19:05;;;;;;;5.10;2.10;;;13.40;99.90;;;;;;4968511;28;20447;-67
2022/11/02 01:21:31;;;;;;;6.53;3.20;;;13.50;99.90;;;;;;4967567;28;20741;-66
2022/11/02 01:23:57;;;;;;;8.47;2.70;;;13.60;99.90;;;;;;4966338;28;20190;-66
2022/11/02 01:26:22;;;;;;;5.30;2.50;;;13.60;99.90;;;;;;4978831;28;20232;-67
2022/11/02 01:28:48;;;;;;;6.07;2.50;;;13.50;99.90;;;;;;4976752;28;20213;-66
2022/11/02 01:31:16;;;;;;;8.33;2.33;;;13.60;99.90;;;;;;4976775;28;20202;-67
2022/11/02 01:33:44;;;;;;;4.53;1.90;;;13.60;99.90;;;;;;4966189;28;20183;-65
2022/11/02 01:36:10;;;;;;;5.53;2.20;;;13.60;99.90;;;;;;4985776;28;20430;-66
2022/11/02 01:38:36;;;;;;;7.80;2.40;;;13.60;99.90;;;;;;4982599;28;20480;-66
2022/11/02 01:41:02;;;;;;;5.07;2.17;;;13.70;99.90;;;;;;4985568;28;20486;-66
2022/11/02 01:43:33;;;;;;;5.50;2.47;;;13.60;99.90;;;;;;4979048;28;20191;-65
2022/11/02 01:46:04;;;;;;;6.93;2.30;;;13.60;99.90;;;;;;4984509;28;20555;-66
2022/11/02 01:48:36;;;;;;;6.97;3.00;;;13.70;99.90;;;;;;4976992;28;20433;-66
2022/11/02 01:51:08;;;;;;;4.93;2.23;;;13.70;99.90;;;;;;4981406;28;20880;-66
2022/11/02 01:53:36;;;;;;;4.27;2.00;;;13.70;99.90;;;;;;4973674;28;20545;-66
2022/11/02 01:56:03;;;;;;;9.50;2.60;;;13.80;99.90;;;;;;4997527;28;20446;-67
2022/11/02 01:58:30;;;;;;;8.53;2.47;;;13.70;99.90;;;;;;4972824;28;20474;-67
2022/11/02 02:00:56;;;;;;;5.37;2.53;;;13.80;99.90;;;;;;4978969;28;20460;-66
2022/11/02 02:03:21;;;;;;;9.97;2.70;;;13.80;99.90;;;;;;4974298;28;20452;-66
2022/11/02 02:05:53;;;;;;;4.10;2.07;;;13.80;99.90;;;;;;4995222;28;20187;-66
2022/11/02 02:08:22;;;;;;;4.63;2.00;;;13.80;99.90;;;;;;4989390;28;20253;-65
2022/11/02 02:10:47;;;;;;;12.00;2.40;;;13.80;99.90;;;;;;4992574;28;20950;-66
2022/11/02 02:13:15;;;;;;;4.87;2.17;;;13.90;99.90;;;;;;4988375;28;20425;-67
2022/11/02 02:16:10;;;;;;;6.07;2.73;;;13.80;99.90;;;;;;4981657;28;20183;-67
2022/11/02 02:18:58;;;;;;;6.17;2.57;;;13.90;99.90;;;;;;4990191;28;20473;-68
2022/11/02 02:21:50;;;;;;;8.50;2.60;;;13.90;99.90;;;;;;4981134;28;21330;-67
2022/11/02 02:25:01;;;;;;;11.03;2.40;;;14.00;99.90;;;;;;4981655;28;20462;-67
2022/11/02 02:27:40;;;;;;;8.30;2.73;;;14.00;99.90;;;;;;5000682;28;20458;-67
2022/11/02 02:30:09;;;;;;;6.90;2.23;;;14.10;99.90;;;;;;4979978;28;21010;-67
2022/11/02 02:32:52;;;;;;;4.47;2.30;;;14.10;99.90;;;;;;4987842;28;20495;-67
2022/11/02 02:35:27;;;;;;;4.00;2.00;;;14.10;99.90;;;;;;4980816;28;20438;-67
2022/11/02 02:38:33;;;;;;;9.07;2.03;;;14.10;99.90;;;;;;4981257;28;20462;-67
2022/11/02 02:41:16;;;;;;;6.40;2.60;;;14.10;99.90;;;;;;4990373;28;20451;-67
2022/11/02 02:43:53;;;;;;;9.13;2.30;;;14.10;99.90;;;;;;4980060;28;20472;-69
2022/11/02 02:46:29;;;;;;;6.50;2.00;;;14.20;99.90;;;;;;4968253;28;20438;-68
2022/11/02 02:48:56;;;;;;;8.20;2.23;;;14.20;99.90;;;;;;5002148;28;20446;-66
2022/11/02 02:51:28;;;;;;;9.83;2.50;;;14.20;99.90;;;;;;4993446;28;20516;-66
2022/11/02 02:54:06;;;;;;;6.13;1.90;;;14.10;99.90;;;;;;4978102;28;20939;-67
2022/11/02 02:56:39;;;;;;;9.80;2.63;;;14.20;99.90;;;;;;4998903;28;20427;-67
2022/11/02 02:59:19;;;;;;;4.33;2.23;;;14.30;99.90;;;;;;5019745;28;20445;-68
2022/11/02 03:01:45;;;;;;;3.97;3.03;;;14.20;99.90;;;;;;4991096;28;20438;-67
2022/11/02 03:04:12;;;;;;;3.47;2.20;;;14.20;99.90;;;;;;4986512;28;20445;-67
2022/11/02 03:06:39;;;;;;;8.57;2.40;;;14.10;99.90;;;;;;4982859;28;20240;-67
2022/11/02 03:09:28;;;;;;;9.40;2.47;;;14.10;99.90;;;;;;4980808;28;20438;-67
2022/11/02 03:12:19;;;;;;;8.87;2.60;;;14.10;99.90;;;;;;4966499;28;20453;-67
2022/11/02 03:15:18;;;;;;;4.60;2.50;;;14.10;99.90;;;;;;4967951;28;21144;-66
2022/11/02 03:18:03;;;;;;;5.33;2.50;;;14.10;99.90;;;;;;4959081;28;20461;-66
2022/11/02 03:20:41;;;;;;;6.70;2.13;;;14.10;99.90;;;;;;4972996;28;20461;-67
2022/11/02 03:23:06;;;;;;;5.40;2.37;;;14.10;99.90;;;;;;4970564;28;20437;-67
2022/11/02 03:25:53;;;;;;;6.07;2.93;;;14.10;99.90;;;;;;4956316;28;20442;-67
2022/11/02 03:28:39;;;;;;;3.90;2.10;;;14.10;99.90;;;;;;4964871;28;20187;-66
2022/11/02 03:31:13;;;;;;;4.33;2.10;;;14.00;99.90;;;;;;4989543;28;20830;-66
2022/11/02 03:33:50;;;;;;;6.57;2.20;;;14.00;99.90;;;;;;4973759;28;20522;-66
2022/11/02 03:36:21;;;;;;;11.00;3.23;;;14.00;99.90;;;;;;4979061;28;20445;-66
2022/11/02 03:39:03;;;;;;;7.40;2.40;;;13.90;99.90;;;;;;5003400;28;20966;-67
2022/11/02 03:41:31;;;;;;;7.43;2.30;;;13.80;99.90;;;;;;4989020;28;20446;-68
2022/11/02 03:44:05;;;;;;;4.23;2.13;;;13.70;99.90;;;;;;4979379;28;20462;-67
2022/11/02 03:46:35;;;;;;;7.30;2.10;;;13.60;99.90;;;;;;4973508;28;20434;-67
2022/11/02 03:49:04;;;;;;;5.70;2.27;;;13.50;99.90;;;;;;4979838;28;20494;-67
2022/11/02 03:51:33;;;;;;;4.83;2.13;;;13.40;99.90;;;;;;4995780;28;20470;-67
2022/11/02 03:54:07;;;;;;;4.00;2.30;;;13.40;99.90;;;;;;4987877;28;20902;-67
2022/11/02 03:56:36;;;;;;;4.37;1.93;;;13.40;99.90;;;;;;4990727;28;20959;-66
2022/11/02 03:59:02;;;;;;;5.83;2.27;;;13.40;99.90;;;;;;4996344;28;20461;-66
2022/11/02 04:01:30;;;;;;;5.00;2.03;;;13.40;99.90;;;;;;4998464;28;20881;-66
2022/11/02 04:03:56;;;;;;;4.60;2.13;;;13.50;99.90;;;;;;4981011;28;20524;-66
2022/11/02 04:06:22;;;;;;;10.27;3.47;;;13.50;99.90;;;;;;4962302;28;20520;-67
2022/11/02 04:08:48;;;;;;;9.77;2.47;;;13.50;99.90;;;;;;4972746;28;20949;-67
2022/11/02 04:16:43;;;;;;;4.40;1.90;;;13.50;99.90;;;;;;4967220;28;21682;-67
2022/11/02 04:19:27;;;;;;;7.03;2.70;;;13.50;99.90;;;;;;4968940;28;20434;-67
2022/11/02 04:27:24;;;;;;;8.60;2.30;;;13.50;99.90;;;;;;4964635;28;20449;-66
2022/11/02 04:29:50;;;;;;;8.60;2.70;;;13.60;99.90;;;;;;4982502;28;20454;-66
2022/11/02 04:33:31;;;;;;;5.93;2.27;;;13.50;99.90;;;;;;4969831;28;20183;-65
2022/11/02 04:35:05;;;;;;;13.10;2.63;;;13.50;99.90;;;;;;4969412;28;20354;-66
2022/11/02 04:40:14;;;;;;;6.27;2.50;;;13.40;99.90;;;;;;4989813;28;21162;-66
2022/11/02 04:42:40;;;;;;;3.57;1.90;;;13.40;99.90;;;;;;4982206;28;20433;-67
2022/11/02 04:45:06;;;;;;;8.37;2.50;;;13.30;99.90;;;;;;4979626;28;20213;-66
2022/11/02 04:47:31;;;;;;;4.03;1.87;;;13.30;99.90;;;;;;4981554;28;20195;-67
2022/11/02 04:49:57;;;;;;;11.60;3.70;;;13.40;99.90;;;;;;4974521;28;20478;-67
2022/11/02 04:52:22;;;;;;;7.20;2.07;;;13.30;99.90;;;;;;4992004;28;20209;-67
2022/11/02 04:54:48;;;;;;;6.93;2.70;;;13.40;99.90;;;;;;4976234;28;20274;-66
2022/11/02 04:57:13;;;;;;;8.40;2.83;;;13.30;99.90;;;;;;4992748;28;20245;-66
2022/11/02 04:59:39;;;;;;;8.93;2.77;;;13.30;99.90;;;;;;4977754;28;20245;-66
2022/11/02 05:02:04;;;;;;;5.87;2.10;;;13.20;99.90;;;;;;4990539;28;20611;-67
2022/11/02 05:04:30;;;;;;;5.03;2.37;;;13.30;99.90;;;;;;4986437;28;20207;-67
2022/11/02 05:06:55;;;;;;;8.93;2.40;;;13.40;99.90;;;;;;4974569;28;20213;-67
2022/11/02 05:09:21;;;;;;;4.43;2.30;;;13.50;99.90;;;;;;4991798;28;20183;-67
2022/11/02 05:11:46;;;;;;;9.70;3.10;;;13.60;99.90;;;;;;4980339;28;20191;-68
2022/11/02 05:14:12;;;;;;;6.33;2.53;;;13.60;99.90;;;;;;4979038;28;20186;-67
2022/11/02 05:16:37;;;;;;;5.33;2.27;;;13.60;99.90;;;;;;4992569;28;20723;-67
2022/11/02 05:19:03;;;;;;;9.00;2.60;;;13.70;99.90;;;;;;4986457;28;20297;-67
2022/11/02 05:21:28;;;;;;;7.57;3.03;;;13.70;99.90;;;;;;4999491;28;20751;-67
2022/11/02 05:23:54;;;;;;;4.37;2.23;;;13.80;99.90;;;;;;5005001;28;20691;-67
2022/11/02 05:26:19;;;;;;;6.10;2.27;;;13.80;99.90;;;;;;4974851;28;20262;-67
2022/11/02 05:28:45;;;;;;;6.00;3.00;;;13.80;99.90;;;;;;4995651;28;20191;-67
2022/11/02 05:31:10;;;;;;;10.40;2.67;;;13.90;99.90;;;;;;4994853;28;20199;-67
2022/11/02 05:33:36;;;;;;;8.63;2.43;;;13.90;99.90;;;;;;4987840;28;20186;-66
2022/11/02 05:36:03;;;;;;;5.83;2.70;;;13.80;99.90;;;;;;5003370;28;20202;-67
2022/11/02 05:38:28;;;;;;;9.77;3.00;;;13.80;99.90;;;;;;4983381;28;20206;-66
2022/11/02 05:40:58;;;;;;;10.73;2.60;;;13.80;99.90;;;;;;4984388;28;20520;-66
2022/11/02 05:43:24;;;;;;;7.70;2.50;;;13.80;99.90;;;;;;4978417;28;20254;-66
2022/11/02 05:45:55;;;;;;;7.20;2.40;;;13.90;99.90;;;;;;4991990;28;20472;-68
2022/11/02 05:48:22;;;;;;;7.70;3.00;;;13.90;99.90;;;;;;4992386;28;20778;-66
2022/11/02 05:50:48;;;;;;;11.63;2.50;;;13.90;99.90;;;;;;4968786;28;20552;-68
2022/11/02 05:53:13;;;;;;;5.67;3.33;;;13.90;99.90;;;;;;4985442;28;20649;-68
2022/11/02 05:55:39;;;;;;;7.93;4.00;;;13.90;99.90;;;;;;4996312;28;20540;-68
2022/11/02 05:58:04;;;;;;;7.07;2.90;;;13.80;99.90;;;;;;4990388;28;20260;-67
2022/11/02 06:00:30;;;;;;;5.80;2.77;;;13.80;99.90;;;;;;4990174;28;20194;-67
2022/11/02 06:02:57;;;;;;;9.93;2.73;;;13.80;99.90;;;;;;4996051;28;20243;-67
2022/11/02 06:05:23;;;;;;;11.17;3.00;;;13.80;99.90;;;;;;4971316;28;20583;-67
2022/11/02 06:07:48;;;;;;;12.13;3.70;;;13.70;99.90;;;;;;4975960;28;20570;-67
2022/11/02 06:10:14;;;;;;;8.50;2.87;;;13.70;99.90;;;;;;4991839;28;20469;-67
2022/11/02 06:12:40;;;;;;;11.30;3.20;;;13.70;99.90;;;;;;5003309;28;20687;-67
2022/11/02 06:15:06;;;;;;;8.67;3.40;;;13.70;99.90;;;;;;4985915;28;20994;-67
2022/11/02 06:17:39;;;;;;;7.90;3.23;;;13.70;99.90;;;;;;5008041;28;20206;-67
2022/11/02 06:20:05;;;;;;;10.90;3.50;;;13.70;99.90;;;;;;4977106;28;20433;-67
2022/11/02 06:22:38;;;;;;;10.90;3.10;;;13.80;99.90;;;;;;4999647;28;20445;-67
2022/11/02 06:25:03;;;;;;;11.50;3.67;;;13.70;99.90;;;;;;4985953;28;20464;-68
2022/11/02 06:27:29;;;;;;;10.40;2.93;;;13.70;99.90;;;;;;4993107;28;20443;-67
2022/11/02 06:29:54;;;;;;;6.80;3.37;;;13.70;99.90;;;;;;5006185;28;20234;-67
2022/11/02 06:32:20;;;;;;;7.33;3.27;;;13.70;99.90;;;;;;4965088;28;20187;-67
2022/11/02 06:34:45;;;;;;;10.30;3.90;;;13.70;99.90;;;;;;4969967;28;20205;-67
2022/11/02 06:37:11;;;;;;;7.00;3.40;;;13.70;99.90;;;;;;4981681;28;20289;-67
2022/11/02 06:39:37;;;;;;;4.70;2.80;;;13.60;99.90;;;;;;4971755;28;20596;-68
2022/11/02 06:42:02;;;;;;;9.13;3.50;;;13.70;99.90;;;;;;4975646;28;20872;-68
2022/11/02 06:44:28;;;;;;;6.47;3.20;;;13.70;99.90;;;;;;4980142;28;20218;-67
2022/11/02 06:46:53;;;;;;;9.20;3.97;;;13.60;99.90;;;;;;4974741;28;20187;-67
2022/11/02 06:49:19;;;;;;;9.87;3.27;;;13.70;99.90;;;;;;4990990;28;20555;-67
2022/11/02 06:51:44;;;;;;;10.47;3.30;;;13.60;99.90;;;;;;4978249;28;20233;-67
2022/11/02 06:54:10;;;;;;;5.43;3.70;;;13.60;99.90;;;;;;4966471;28;20187;-67
2022/11/02 06:56:36;;;;;;;7.47;2.90;;;13.60;99.90;;;;;;4993306;28;20194;-67
2022/11/02 06:59:01;;;;;;;9.33;3.20;;;13.60;99.90;;;;;;4992733;28;20203;-67
2022/11/02 07:01:27;;;;;;;5.80;3.10;;;13.60;99.90;;;;;;5006748;28;20675;-68
2022/11/02 07:03:52;;;;;;;6.27;3.67;;;13.60;99.90;;;;;;4982123;28;20187;-67
2022/11/02 07:06:18;;;;;;;5.10;3.10;;;13.60;99.90;;;;;;4976688;28;20191;-66
2022/11/02 07:08:43;;;;;;;6.47;3.00;;;13.60;99.90;;;;;;4967319;28;20194;-66
2022/11/02 07:11:15;;;;;;;12.73;4.40;;;13.70;99.90;;;;;;4979777;28;20203;-66
2022/11/02 07:13:41;;;;;;;8.50;3.10;;;13.70;99.90;;;;;;4972146;28;20578;-66
2022/11/02 07:16:06;;;;;;;6.03;2.90;;;13.60;99.90;;;;;;4979649;28;20619;-68
2022/11/02 07:18:32;;;;;;;8.80;3.40;;;13.60;99.90;;;;;;4998486;28;20552;-68
2022/11/02 07:20:58;;;;;;;8.37;2.90;;;13.70;99.90;;;;;;4972155;28;20207;-67
2022/11/02 07:23:24;;;;;;;6.57;3.13;;;13.80;99.90;;;;;;4984470;28;20183;-67
2022/11/02 07:25:50;;;;;;;6.97;3.00;;;13.70;99.90;;;;;;4965808;28;20938;-66
2022/11/02 07:28:15;;;;;;;9.70;3.03;;;13.80;99.90;;;;;;4983885;28;20194;-67
2022/11/02 07:30:41;;;;;;;6.97;3.23;;;13.80;99.90;;;;;;4980857;28;20522;-66
2022/11/02 07:33:07;;;;;;;13.73;4.10;;;13.70;99.90;;;;;;4981225;28;20651;-67
2022/11/02 07:35:35;;;;;;;6.47;2.30;;;13.80;99.90;;;;;;4970407;28;20206;-67
2022/11/02 07:38:06;;;;;;;12.80;3.83;;;13.80;99.90;;;;;;4985536;28;20210;-65
2022/11/02 07:40:34;;;;;;;5.33;2.30;;;13.80;99.90;;;;;;4970557;28;20585;-64
2022/11/02 07:43:00;;;;;;;9.37;3.17;;;13.90;99.90;;;;;;4976221;28;20434;-64
2022/11/02 07:45:27;;;;;;;9.17;2.90;;;13.90;99.90;;;;;;4981140;28;20583;-65
2022/11/02 07:47:53;;;;;;;8.93;3.67;;;14.00;99.90;;;;;;5001407;28;20433;-65
2022/11/02 07:50:21;;;;;;;12.80;3.43;;;13.90;99.90;;;;;;4981411;28;20463;-65
2022/11/02 07:52:56;;;;;;;9.60;3.07;;;14.00;99.90;;;;;;4972621;28;20199;-65
2022/11/02 07:55:24;;;;;;;11.03;3.13;;;14.00;99.90;;;;;;4967864;28;20949;-65
2022/11/02 07:58:04;;;;;;;8.30;2.93;;;14.00;99.90;;;;;;4989263;28;20861;-66
2022/11/02 08:00:32;;;;;;;9.13;2.87;;;14.10;99.90;;;;;;4990634;28;20430;-66
2022/11/02 08:02:59;;;;;;;10.30;2.87;;;14.10;99.90;;;;;;4973650;28;20433;-67
2022/11/02 08:05:26;;;;;;;7.60;2.97;;;14.10;99.90;;;;;;4974600;28;20518;-67
2022/11/02 08:08:13;;;;;;;5.40;2.60;;;14.10;99.90;;;;;;4979887;28;20442;-67
2022/11/02 08:10:39;;;;;;;4.60;2.70;;;14.10;99.90;;;;;;4967939;28;20473;-67
2022/11/02 08:13:05;;;;;;;10.73;3.33;;;14.20;99.90;;;;;;4992349;28;20967;-66
2022/11/02 08:15:30;;;;;;;3.33;2.37;;;14.20;99.90;;;;;;4986558;28;20906;-66
2022/11/02 08:18:04;;;;;;;6.47;2.40;;;14.30;99.90;;;;;;4974099;28;20529;-64
2022/11/02 08:20:30;;;;;;;4.93;2.20;;;14.30;99.90;;;;;;4972530;28;20207;-66
2022/11/02 08:22:56;;;;;;;5.73;2.60;;;14.30;99.90;;;;;;4976723;28;20557;-66
2022/11/02 08:25:22;;;;;;;7.43;2.73;;;14.40;99.90;;;;;;4999769;28;21336;-65
2022/11/02 08:27:48;;;;;;;9.07;3.00;;;14.40;99.90;;;;;;4996053;28;20200;-64
2022/11/02 08:30:13;;;;;;;6.67;2.57;;;14.30;99.90;;;;;;4994180;28;20763;-64
2022/11/02 08:32:39;;;;;;;13.90;3.30;;;14.40;99.90;;;;;;4986064;28;20199;-65
2022/11/02 08:35:05;;;;;;;6.17;2.80;;;14.40;99.90;;;;;;4987267;28;20191;-65
2022/11/02 08:37:30;;;;;;;6.20;2.27;;;14.50;99.90;;;;;;4976892;28;20230;-66
2022/11/02 08:39:56;;;;;;;6.23;2.23;;;14.50;99.90;;;;;;4984775;28;20851;-66
2022/11/02 08:42:21;;;;;;;6.07;2.73;;;14.50;99.90;;;;;;4988081;28;20663;-67
2022/11/02 08:44:47;;;;;;;4.33;2.37;;;14.50;99.90;;;;;;4985986;28;20458;-67
2022/11/02 08:47:14;;;;;;;4.83;2.80;;;14.60;99.90;;;;;;4991527;28;20924;-65
2022/11/02 08:49:40;;;;;;;10.87;2.83;;;14.60;99.90;;;;;;4968213;28;20215;-65
2022/11/02 08:52:05;;;;;;;8.27;2.90;;;14.80;99.90;;;;;;4994251;28;20558;-65
2022/11/02 08:54:31;;;;;;;5.60;2.57;;;14.80;99.90;;;;;;4992860;28;20189;-66
2022/11/02 08:56:57;;;;;;;4.30;2.40;;;14.90;99.90;;;;;;4990769;28;20273;-65
2022/11/02 08:59:22;;;;;;;5.40;2.43;;;14.90;99.90;;;;;;4989205;28;20695;-64
2022/11/02 09:01:48;;;;;;;9.70;2.20;;;15.00;99.90;;;;;;4980025;28;20239;-66
2022/11/02 09:04:13;;;;;;;10.47;2.27;;;15.10;99.90;;;;;;5019662;28;20256;-66
2022/11/02 09:06:39;;;;;;;6.90;2.60;;;15.10;99.90;;;;;;4998810;28;20540;-66
2022/11/02 09:09:04;;;;;;;9.03;2.80;;;15.20;99.90;;;;;;4974856;28;22109;-68
2022/11/02 09:11:30;;;;;;;8.90;2.50;;;15.10;99.90;;;;;;4986134;28;20608;-66
2022/11/02 09:13:55;;;;;;;8.43;3.10;;;15.10;99.90;;;;;;4992824;28;20179;-66
2022/11/02 09:16:21;;;;;;;6.43;2.50;;;15.10;99.90;;;;;;4971290;28;20187;-65
2022/11/02 09:18:46;;;;;;;6.10;2.27;;;15.20;99.90;;;;;;4987169;28;20275;-64
2022/11/02 09:21:12;;;;;;;8.40;2.60;;;15.20;99.90;;;;;;4983534;28;20295;-64
2022/11/02 09:23:37;;;;;;;14.40;3.23;;;15.20;99.90;;;;;;4985535;28;20183;-63
2022/11/02 09:26:03;;;;;;;7.17;3.20;;;15.10;99.90;;;;;;4981339;28;20183;-64
2022/11/02 09:28:29;;;;;;;8.43;3.00;;;15.20;99.90;;;;;;4990495;28;20195;-64
2022/11/02 09:30:54;;;;;;;7.20;2.30;;;15.30;99.90;;;;;;4986703;28;20246;-63
2022/11/02 09:33:20;;;;;;;8.30;2.70;;;15.40;99.90;;;;;;4992655;28;20183;-64
2022/11/02 09:35:47;;;;;;;5.60;2.60;;;15.40;99.90;;;;;;4998627;28;20183;-65
2022/11/02 09:38:13;;;;;;;9.83;3.30;;;15.40;99.90;;;;;;4984934;28;20203;-65
2022/11/02 09:40:59;;;;;;;6.30;2.40;;;15.50;99.90;;;;;;4996506;28;20481;-65
2022/11/02 09:43:43;;;;;;;6.13;2.50;;;15.40;99.90;;;;;;4985920;28;20957;-66
2022/11/02 09:46:18;;;;;;;5.80;2.43;;;15.40;99.90;;;;;;4988180;28;21156;-66
2022/11/02 09:48:48;;;;;;;8.23;2.40;;;15.40;99.90;;;;;;4980102;28;20463;-64
2022/11/02 09:51:19;;;;;;;10.00;2.83;;;15.40;99.90;;;;;;4991967;28;20545;-64
2022/11/02 09:54:11;;;;;;;6.70;2.83;;;15.40;99.90;;;;;;4984206;28;20591;-66
2022/11/02 09:56:37;;;;;;;7.07;2.30;;;15.30;99.90;;;;;;4972004;28;20865;-64
2022/11/02 09:59:15;;;;;;;6.90;2.53;;;15.30;99.90;;;;;;4982714;28;20475;-65
2022/11/02 10:01:40;;;;;;;10.27;2.33;;;15.30;99.90;;;;;;4991818;28;20222;-64
2022/11/02 10:04:31;;;;;;;10.30;2.87;;;15.30;99.90;;;;;;4991308;28;20448;-66
2022/11/02 10:07:14;;;;;;;7.87;2.40;;;15.20;99.90;;;;;;4989559;28;20175;-65
2022/11/02 10:09:45;;;;;;;8.70;2.90;;;15.30;99.90;;;;;;4983050;28;20429;-66
2022/11/02 10:12:18;;;;;;;9.93;2.60;;;15.30;99.90;;;;;;4963533;28;20465;-66
2022/11/02 10:15:12;;;;;;;13.77;2.90;;;15.40;99.90;;;;;;4977759;28;20438;-67
2022/11/02 10:17:40;;;;;;;11.07;3.20;;;15.50;99.90;;;;;;4988428;28;20453;-67
2022/11/02 10:20:28;;;;;;;13.40;3.33;;;15.50;99.90;;;;;;4977982;28;20690;-64
2022/11/02 10:23:02;;;;;;;6.37;2.30;;;15.50;99.90;;;;;;4989295;28;20426;-67
2022/11/02 10:25:27;;;;;;;12.90;3.77;;;15.50;99.90;;;;;;4994612;28;20417;-67
2022/11/02 10:28:03;;;;;;;9.83;2.93;;;15.50;99.90;;;;;;4984899;28;20499;-68
2022/11/02 10:30:29;;;;;;;10.57;2.77;;;15.30;99.90;;;;;;5006973;28;20237;-68
2022/11/02 10:32:55;;;;;;;6.93;2.63;;;15.20;99.90;;;;;;4978990;28;20557;-67
2022/11/02 10:35:48;;;;;;;5.90;2.60;;;15.20;99.90;;;;;;4981459;28;21374;-69
2022/11/02 10:38:34;;;;;;;9.73;2.60;;;15.20;99.90;;;;;;4959821;28;20470;-63
2022/11/02 10:41:17;;;;;;;6.23;2.40;;;15.10;99.90;;;;;;4976697;28;20463;-64
2022/11/02 10:44:00;;;;;;;11.93;3.00;;;15.20;99.90;;;;;;4991954;28;20446;-65
2022/11/02 10:46:29;;;;;;;17.73;3.50;;;15.10;99.90;;;;;;4975344;28;20436;-64
2022/11/02 10:49:16;;;;;;;7.93;2.57;;;15.10;99.90;;;;;;4982053;28;20433;-64
2022/11/02 10:51:41;;;;;;;6.40;2.73;;;15.20;99.90;;;;;;4979495;28;20475;-63
2022/11/02 10:54:13;;;;;;;11.93;3.17;;;15.30;99.90;;;;;;4965147;28;20441;-64
2022/11/02 10:56:40;;;;;;;10.20;3.10;;;15.40;99.90;;;;;;4975460;28;20802;-64
2022/11/02 10:59:11;;;;;;;8.10;3.00;;;15.50;99.90;;;;;;4982457;28;20843;-65
2022/11/02 11:01:43;;;;;;;11.37;2.97;;;15.60;99.90;;;;;;4997111;28;20450;-63
2022/11/02 11:04:25;;;;;;;10.73;2.87;;;15.60;99.90;;;;;;4983608;28;20449;-64
2022/11/02 11:06:51;;;;;;;10.90;3.33;;;15.70;99.90;;;;;;4975326;28;20438;-65
2022/11/02 11:09:19;;;;;;;8.80;3.73;;;15.70;99.90;;;;;;4975550;28;20438;-65
2022/11/02 11:12:05;;;;;;;9.70;2.67;;;15.70;99.90;;;;;;4985523;28;20461;-64
2022/11/02 11:14:45;;;;;;;10.10;3.50;;;15.70;99.90;;;;;;5003021;28;20881;-65
2022/11/02 11:17:20;;;;;;;6.23;2.67;;;15.80;99.90;;;;;;4983820;28;20441;-65
2022/11/02 11:19:54;;;;;;;16.10;2.63;;;15.90;99.90;;;;;;4980943;28;20886;-65
2022/11/02 11:23:05;;;;;;;15.33;2.90;;;16.00;99.90;;;;;;4991284;28;21002;-65
2022/11/02 11:25:31;;;;;;;13.53;3.10;;;16.10;99.90;;;;;;4986769;28;20951;-66
2022/11/02 11:27:58;;;;;;;13.63;3.57;;;16.20;99.90;;;;;;4971003;28;20543;-64
2022/11/02 11:30:28;;;;;;;8.33;2.47;;;16.30;99.90;;;;;;4982613;28;20313;-65
2022/11/02 11:32:56;;;;;;;11.00;3.00;;;16.30;99.90;;;;;;4978318;28;20522;-64
2022/11/02 11:35:24;;;;;;;12.33;3.20;;;16.20;99.90;;;;;;4993368;28;20453;-64
2022/11/02 11:38:30;;;;;;;8.47;2.73;;;16.10;99.90;;;;;;4972789;28;20516;-64
2022/11/02 11:40:58;;;;;;;8.30;2.70;;;16.10;99.90;;;;;;5002636;28;20488;-64
2022/11/02 11:43:32;;;;;;;8.80;2.80;;;16.10;99.90;;;;;;4982084;28;20446;-63
2022/11/02 11:46:05;;;;;;;9.87;2.80;;;16.30;99.90;;;;;;5026690;22;20644;-66
2022/11/02 11:48:43;;;;;;;8.80;2.60;;;16.80;99.90;;;;;;5012776;28;20454;-67
2022/11/02 11:51:37;;;;;;;8.90;3.47;;;17.40;99.90;;;;;;5024497;28;20446;-67
2022/11/02 11:54:04;;;;;;;10.50;3.47;;;17.30;99.90;;;;;;5024460;28;21323;-67
2022/11/02 11:56:31;;;;;;;11.27;2.73;;;17.60;99.90;;;;;;5020534;28;20446;-66
2022/11/02 11:58:56;;;;;;;8.70;3.20;;;17.90;99.90;;;;;;5000468;28;20470;-66
2022/11/02 12:01:23;;;;;;;8.03;2.87;;;18.10;99.90;;;;;;5021374;28;20439;-65
2022/11/02 12:03:52;;;;;;;11.10;2.80;;;19.00;99.90;;;;;;5022914;28;20195;-66
2022/11/02 12:06:43;;;;;;;6.33;2.33;;;20.00;99.90;;;;;;5023282;28;20614;-66
2022/11/02 12:09:11;;;;;;;7.33;2.70;;;20.90;99.90;;;;;;5001510;28;20512;-66
2022/11/02 12:11:55;;;;;;;9.27;3.10;;;21.50;99.90;;;;;;5018439;28;21045;-68
2022/11/02 12:14:44;;;;;;;7.27;2.77;;;22.30;99.90;;;;;;5020283;28;20563;-67
2022/11/02 12:17:40;;;;;;;7.57;3.23;;;22.80;99.90;;;;;;5020051;28;20443;-67
2022/11/02 12:20:28;;;;;;;6.47;2.57;;;23.10;99.90;;;;;;5020883;28;20472;-67
2022/11/02 12:23:20;;;;;;;5.07;2.57;;;23.30;99.90;;;;;;5019930;28;20823;-67
2022/11/02 12:26:24;;;;;;;6.70;3.30;;;23.60;99.00;;;;;;5001372;28;20839;-68
2022/11/02 12:29:28;;;;;;;6.73;3.13;;;23.40;96.70;;;;;;5021550;28;20504;-67
2022/11/02 12:32:07;;;;;;;6.80;3.27;;;23.50;96.30;;;;;;5019783;28;20446;-67
2022/11/02 12:35:00;;;;;;;5.07;2.83;;;23.60;95.10;;;;;;5005821;28;20451;-67
2022/11/02 12:37:34;;;;;;;9.77;3.47;;;23.90;94.70;;;;;;5007292;28;20466;-65
2022/11/02 12:40:19;;;;;;;5.40;2.40;;;24.10;94.60;;;;;;4999371;28;20443;-66
2022/11/02 12:42:57;;;;;;;5.90;3.20;;;24.00;92.30;;;;;;5019683;28;20435;-67
2022/11/02 12:45:47;;;;;;;10.60;3.77;;;24.10;92.20;;;;;;5015784;28;20469;-67
2022/11/02 12:48:22;;;;;;;5.70;2.97;;;24.20;91.10;;;;;;4980177;28;20447;-66
2022/11/02 12:50:52;;;;;;;7.93;3.23;;;23.60;91.50;;;;;;5020294;28;20975;-66
2022/11/02 12:53:41;;;;;;;8.60;2.80;;;23.10;92.20;;;;;;5021623;28;20461;-66
2022/11/02 12:56:14;;;;;;;4.97;2.63;;;22.50;92.50;;;;;;5023751;28;20436;-66
2022/11/02 12:58:41;;;;;;;7.83;3.97;;;22.10;93.10;;;;;;5015076;28;20878;-65
2022/11/02 13:01:18;;;;;;;11.77;3.20;;;21.60;93.70;;;;;;5018705;28;20466;-67
2022/11/02 13:03:57;;;;;;;9.27;3.27;;;21.70;94.30;;;;;;5019843;28;20793;-67
2022/11/02 13:06:32;;;;;;;6.63;3.20;;;21.70;94.00;;;;;;5020457;28;20484;-67
2022/11/02 13:09:06;;;;;;;4.80;2.67;;;21.60;94.60;;;;;;5012273;28;20459;-67
2022/11/02 13:11:43;;;;;;;4.87;3.30;;;21.60;93.60;;;;;;5010712;28;20431;-67
2022/11/02 13:14:17;;;;;;;6.20;3.47;;;21.40;94.20;;;;;;5013810;28;20450;-67
2022/11/02 13:16:53;;;;;;;7.97;3.20;;;21.10;94.30;;;;;;5022991;28;20444;-67
2022/11/02 13:19:53;;;;;;;5.57;3.00;;;21.10;94.60;;;;;;5023060;28;20469;-67